sensor_id;sensor_type;location;lat;lon;timestamp;P1;durP1;ratioP1;P2;durP2;ratioP2
4232;SDS011;2130;48.472;11.934;2023-01-06T00:01:47;2.30;;;0.93;;
4232;SDS011;2130;48.472;11.934;2023-01-06T00:04:15;2.17;;;1.30;;
4232;SDS011;2130;48.472;11.934;2023-01-06T00:06:43;1.83;;;1.00;;
4232;SDS011;2130;48.472;11.934;2023-01-06T00:09:11;3.07;;;1.20;;
4232;SDS011;2130;48.472;11.934;2023-01-06T00:11:40;1.90;;;0.90;;
4232;SDS011;2130;48.472;11.934;2023-01-06T00:14:08;2.40;;;1.10;;
4232;SDS011;2130;48.472;11.934;2023-01-06T00:16:37;2.50;;;0.80;;
4232;SDS011;2130;48.472;11.934;2023-01-06T00:19:05;2.00;;;0.80;;
4232;SDS011;2130;48.472;11.934;2023-01-06T00:21:34;9.20;;;1.53;;
4232;SDS011;2130;48.472;11.934;2023-01-06T00:24:02;1.40;;;0.87;;
4232;SDS011;2130;48.472;11.934;2023-01-06T00:26:30;2.17;;;1.00;;
4232;SDS011;2130;48.472;11.934;2023-01-06T00:28:59;3.10;;;1.00;;
4232;SDS011;2130;48.472;11.934;2023-01-06T00:31:27;4.63;;;1.23;;
4232;SDS011;2130;48.472;11.934;2023-01-06T00:33:57;3.93;;;0.90;;
4232;SDS011;2130;48.472;11.934;2023-01-06T00:36:26;1.87;;;1.00;;
4232;SDS011;2130;48.472;11.934;2023-01-06T00:38:54;2.50;;;0.90;;
4232;SDS011;2130;48.472;11.934;2023-01-06T00:41:23;1.73;;;0.90;;
4232;SDS011;2130;48.472;11.934;2023-01-06T00:44:10;1.93;;;1.10;;
4232;SDS011;2130;48.472;11.934;2023-01-06T00:46:39;2.23;;;0.90;;
4232;SDS011;2130;48.472;11.934;2023-01-06T00:49:09;1.60;;;0.97;;
4232;SDS011;2130;48.472;11.934;2023-01-06T00:51:38;3.17;;;1.00;;
4232;SDS011;2130;48.472;11.934;2023-01-06T00:54:07;2.90;;;1.10;;
4232;SDS011;2130;48.472;11.934;2023-01-06T00:56:38;2.80;;;1.20;;
4232;SDS011;2130;48.472;11.934;2023-01-06T00:59:08;4.10;;;1.17;;
4232;SDS011;2130;48.472;11.934;2023-01-06T01:01:36;1.90;;;1.20;;
4232;SDS011;2130;48.472;11.934;2023-01-06T01:04:05;2.03;;;1.00;;
4232;SDS011;2130;48.472;11.934;2023-01-06T01:06:35;1.97;;;1.07;;
4232;SDS011;2130;48.472;11.934;2023-01-06T01:09:04;2.40;;;1.30;;
4232;SDS011;2130;48.472;11.934;2023-01-06T01:11:33;2.03;;;1.10;;
4232;SDS011;2130;48.472;11.934;2023-01-06T01:14:28;3.27;;;0.93;;
4232;SDS011;2130;48.472;11.934;2023-01-06T01:16:56;1.77;;;1.00;;
4232;SDS011;2130;48.472;11.934;2023-01-06T01:19:25;2.03;;;1.13;;
4232;SDS011;2130;48.472;11.934;2023-01-06T01:21:56;4.33;;;1.20;;
4232;SDS011;2130;48.472;11.934;2023-01-06T01:24:25;5.53;;;1.23;;
4232;SDS011;2130;48.472;11.934;2023-01-06T01:26:53;2.80;;;1.00;;
4232;SDS011;2130;48.472;11.934;2023-01-06T01:29:23;1.57;;;0.90;;
4232;SDS011;2130;48.472;11.934;2023-01-06T01:31:52;2.30;;;1.10;;
4232;SDS011;2130;48.472;11.934;2023-01-06T01:34:21;1.80;;;0.90;;
4232;SDS011;2130;48.472;11.934;2023-01-06T01:36:51;3.20;;;0.90;;
4232;SDS011;2130;48.472;11.934;2023-01-06T01:39:23;2.03;;;1.10;;
4232;SDS011;2130;48.472;11.934;2023-01-06T01:41:54;1.87;;;0.80;;
4232;SDS011;2130;48.472;11.934;2023-01-06T01:47:30;2.17;;;1.17;;
4232;SDS011;2130;48.472;11.934;2023-01-06T01:50:05;2.50;;;0.87;;
4232;SDS011;2130;48.472;11.934;2023-01-06T01:52:36;1.93;;;1.00;;
4232;SDS011;2130;48.472;11.934;2023-01-06T01:55:07;3.27;;;1.10;;
4232;SDS011;2130;48.472;11.934;2023-01-06T01:57:37;4.10;;;1.33;;
4232;SDS011;2130;48.472;11.934;2023-01-06T02:00:07;2.27;;;1.00;;
4232;SDS011;2130;48.472;11.934;2023-01-06T02:02:40;2.00;;;0.90;;
4232;SDS011;2130;48.472;11.934;2023-01-06T02:05:11;2.57;;;1.23;;
4232;SDS011;2130;48.472;11.934;2023-01-06T02:07:42;1.77;;;0.90;;
4232;SDS011;2130;48.472;11.934;2023-01-06T02:10:13;1.67;;;0.80;;
4232;SDS011;2130;48.472;11.934;2023-01-06T02:12:43;1.87;;;1.00;;
4232;SDS011;2130;48.472;11.934;2023-01-06T02:15:15;2.10;;;0.90;;
4232;SDS011;2130;48.472;11.934;2023-01-06T02:20:42;4.53;;;1.00;;
4232;SDS011;2130;48.472;11.934;2023-01-06T02:32:42;5.00;;;1.00;;
4232;SDS011;2130;48.472;11.934;2023-01-06T02:35:27;2.80;;;0.80;;
4232;SDS011;2130;48.472;11.934;2023-01-06T02:38:03;2.67;;;1.10;;
4232;SDS011;2130;48.472;11.934;2023-01-06T02:40:41;2.13;;;0.80;;
4232;SDS011;2130;48.472;11.934;2023-01-06T02:43:21;2.50;;;0.97;;
4232;SDS011;2130;48.472;11.934;2023-01-06T02:45:56;3.00;;;1.00;;
4232;SDS011;2130;48.472;11.934;2023-01-06T02:48:34;3.67;;;1.27;;
4232;SDS011;2130;48.472;11.934;2023-01-06T02:54:05;2.70;;;0.90;;
4232;SDS011;2130;48.472;11.934;2023-01-06T02:56:44;3.43;;;0.90;;
4232;SDS011;2130;48.472;11.934;2023-01-06T02:59:17;3.60;;;1.13;;
4232;SDS011;2130;48.472;11.934;2023-01-06T03:01:48;2.50;;;0.80;;
4232;SDS011;2130;48.472;11.934;2023-01-06T03:04:19;3.47;;;1.20;;
4232;SDS011;2130;48.472;11.934;2023-01-06T03:06:51;2.17;;;0.90;;
4232;SDS011;2130;48.472;11.934;2023-01-06T03:09:22;3.27;;;1.00;;
4232;SDS011;2130;48.472;11.934;2023-01-06T03:11:56;2.20;;;0.87;;
4232;SDS011;2130;48.472;11.934;2023-01-06T03:14:31;3.07;;;1.10;;
4232;SDS011;2130;48.472;11.934;2023-01-06T03:17:01;2.43;;;0.87;;
4232;SDS011;2130;48.472;11.934;2023-01-06T03:19:31;3.30;;;0.90;;
4232;SDS011;2130;48.472;11.934;2023-01-06T03:22:02;2.70;;;1.00;;
4232;SDS011;2130;48.472;11.934;2023-01-06T03:24:31;3.03;;;0.93;;
4232;SDS011;2130;48.472;11.934;2023-01-06T03:27:02;2.83;;;0.90;;
4232;SDS011;2130;48.472;11.934;2023-01-06T03:29:33;5.37;;;1.20;;
4232;SDS011;2130;48.472;11.934;2023-01-06T03:32:04;3.17;;;1.17;;
4232;SDS011;2130;48.472;11.934;2023-01-06T03:34:42;4.00;;;1.00;;
4232;SDS011;2130;48.472;11.934;2023-01-06T03:37:24;3.70;;;1.10;;
4232;SDS011;2130;48.472;11.934;2023-01-06T03:39:57;3.40;;;1.20;;
4232;SDS011;2130;48.472;11.934;2023-01-06T03:42:32;5.00;;;1.40;;
4232;SDS011;2130;48.472;11.934;2023-01-06T03:45:25;3.90;;;1.20;;
4232;SDS011;2130;48.472;11.934;2023-01-06T03:48:01;6.20;;;1.27;;
4232;SDS011;2130;48.472;11.934;2023-01-06T03:50:37;3.57;;;1.20;;
4232;SDS011;2130;48.472;11.934;2023-01-06T03:53:12;4.73;;;1.10;;
4232;SDS011;2130;48.472;11.934;2023-01-06T03:55:51;3.53;;;1.20;;
4232;SDS011;2130;48.472;11.934;2023-01-06T03:58:23;4.60;;;1.10;;
4232;SDS011;2130;48.472;11.934;2023-01-06T04:00:53;3.53;;;1.10;;
4232;SDS011;2130;48.472;11.934;2023-01-06T04:03:22;3.70;;;0.93;;
4232;SDS011;2130;48.472;11.934;2023-01-06T04:05:54;3.70;;;1.10;;
4232;SDS011;2130;48.472;11.934;2023-01-06T04:08:24;3.60;;;1.07;;
4232;SDS011;2130;48.472;11.934;2023-01-06T04:10:53;3.83;;;1.20;;
4232;SDS011;2130;48.472;11.934;2023-01-06T04:13:22;4.40;;;1.10;;
4232;SDS011;2130;48.472;11.934;2023-01-06T04:15:49;3.90;;;1.10;;
4232;SDS011;2130;48.472;11.934;2023-01-06T04:18:17;3.90;;;1.10;;
4232;SDS011;2130;48.472;11.934;2023-01-06T04:20:47;6.03;;;1.10;;
4232;SDS011;2130;48.472;11.934;2023-01-06T04:23:34;4.00;;;1.13;;
4232;SDS011;2130;48.472;11.934;2023-01-06T04:26:05;4.30;;;1.20;;
4232;SDS011;2130;48.472;11.934;2023-01-06T04:28:38;4.50;;;1.10;;
4232;SDS011;2130;48.472;11.934;2023-01-06T04:31:06;4.13;;;1.10;;
4232;SDS011;2130;48.472;11.934;2023-01-06T04:33:36;4.60;;;1.27;;
4232;SDS011;2130;48.472;11.934;2023-01-06T04:36:07;4.17;;;1.10;;
4232;SDS011;2130;48.472;11.934;2023-01-06T04:38:40;4.70;;;1.20;;
4232;SDS011;2130;48.472;11.934;2023-01-06T04:41:09;4.23;;;1.10;;
4232;SDS011;2130;48.472;11.934;2023-01-06T04:43:37;4.37;;;1.40;;
4232;SDS011;2130;48.472;11.934;2023-01-06T04:46:06;4.73;;;1.10;;
4232;SDS011;2130;48.472;11.934;2023-01-06T04:48:34;4.37;;;1.30;;
4232;SDS011;2130;48.472;11.934;2023-01-06T04:51:04;6.20;;;1.40;;
4232;SDS011;2130;48.472;11.934;2023-01-06T04:53:34;4.83;;;1.00;;
4232;SDS011;2130;48.472;11.934;2023-01-06T04:56:05;5.50;;;1.20;;
4232;SDS011;2130;48.472;11.934;2023-01-06T04:58:35;7.03;;;1.40;;
4232;SDS011;2130;48.472;11.934;2023-01-06T05:01:04;4.13;;;1.00;;
4232;SDS011;2130;48.472;11.934;2023-01-06T05:03:34;6.43;;;1.40;;
4232;SDS011;2130;48.472;11.934;2023-01-06T05:06:03;4.90;;;1.33;;
4232;SDS011;2130;48.472;11.934;2023-01-06T05:08:35;4.77;;;1.30;;
4232;SDS011;2130;48.472;11.934;2023-01-06T05:11:07;5.13;;;1.10;;
4232;SDS011;2130;48.472;11.934;2023-01-06T05:13:37;5.20;;;1.30;;
4232;SDS011;2130;48.472;11.934;2023-01-06T05:16:06;5.23;;;1.50;;
4232;SDS011;2130;48.472;11.934;2023-01-06T05:18:35;5.03;;;1.40;;
4232;SDS011;2130;48.472;11.934;2023-01-06T05:21:04;4.40;;;1.20;;
4232;SDS011;2130;48.472;11.934;2023-01-06T05:23:33;5.20;;;1.40;;
4232;SDS011;2130;48.472;11.934;2023-01-06T05:26:03;3.93;;;1.10;;
4232;SDS011;2130;48.472;11.934;2023-01-06T05:28:33;5.50;;;1.20;;
4232;SDS011;2130;48.472;11.934;2023-01-06T05:31:02;4.50;;;1.30;;
4232;SDS011;2130;48.472;11.934;2023-01-06T05:33:32;4.50;;;1.20;;
4232;SDS011;2130;48.472;11.934;2023-01-06T05:36:00;4.80;;;1.27;;
4232;SDS011;2130;48.472;11.934;2023-01-06T05:38:30;4.30;;;1.23;;
4232;SDS011;2130;48.472;11.934;2023-01-06T05:41:00;4.90;;;1.30;;
4232;SDS011;2130;48.472;11.934;2023-01-06T05:43:28;5.47;;;1.40;;
4232;SDS011;2130;48.472;11.934;2023-01-06T05:46:02;4.30;;;1.10;;
4232;SDS011;2130;48.472;11.934;2023-01-06T05:48:32;6.23;;;1.50;;
4232;SDS011;2130;48.472;11.934;2023-01-06T05:51:01;4.90;;;1.27;;
4232;SDS011;2130;48.472;11.934;2023-01-06T05:53:31;4.60;;;1.17;;
4232;SDS011;2130;48.472;11.934;2023-01-06T05:56:00;5.07;;;1.30;;
4232;SDS011;2130;48.472;11.934;2023-01-06T05:58:29;4.77;;;1.20;;
4232;SDS011;2130;48.472;11.934;2023-01-06T06:01:00;5.60;;;1.57;;
4232;SDS011;2130;48.472;11.934;2023-01-06T06:03:30;5.63;;;1.40;;
4232;SDS011;2130;48.472;11.934;2023-01-06T06:06:00;5.30;;;1.27;;
4232;SDS011;2130;48.472;11.934;2023-01-06T06:08:30;4.43;;;1.13;;
4232;SDS011;2130;48.472;11.934;2023-01-06T06:11:00;5.40;;;1.20;;
4232;SDS011;2130;48.472;11.934;2023-01-06T06:13:29;5.40;;;1.50;;
4232;SDS011;2130;48.472;11.934;2023-01-06T06:16:08;5.00;;;1.20;;
4232;SDS011;2130;48.472;11.934;2023-01-06T06:18:38;5.43;;;1.47;;
4232;SDS011;2130;48.472;11.934;2023-01-06T06:21:10;4.37;;;1.10;;
4232;SDS011;2130;48.472;11.934;2023-01-06T06:23:39;4.90;;;1.20;;
4232;SDS011;2130;48.472;11.934;2023-01-06T06:26:09;4.27;;;1.17;;
4232;SDS011;2130;48.472;11.934;2023-01-06T06:28:39;4.47;;;1.17;;
4232;SDS011;2130;48.472;11.934;2023-01-06T06:31:10;5.10;;;1.20;;
4232;SDS011;2130;48.472;11.934;2023-01-06T06:33:40;4.83;;;1.30;;
4232;SDS011;2130;48.472;11.934;2023-01-06T06:36:09;5.23;;;1.10;;
4232;SDS011;2130;48.472;11.934;2023-01-06T06:38:42;4.90;;;1.30;;
4232;SDS011;2130;48.472;11.934;2023-01-06T06:41:11;4.73;;;1.30;;
4232;SDS011;2130;48.472;11.934;2023-01-06T06:43:42;4.87;;;0.90;;
4232;SDS011;2130;48.472;11.934;2023-01-06T06:46:12;5.33;;;1.17;;
4232;SDS011;2130;48.472;11.934;2023-01-06T06:48:41;5.50;;;1.37;;
4232;SDS011;2130;48.472;11.934;2023-01-06T06:51:11;6.97;;;1.40;;
4232;SDS011;2130;48.472;11.934;2023-01-06T06:53:43;5.70;;;1.40;;
4232;SDS011;2130;48.472;11.934;2023-01-06T06:56:12;4.90;;;1.37;;
4232;SDS011;2130;48.472;11.934;2023-01-06T06:58:41;5.63;;;1.20;;
4232;SDS011;2130;48.472;11.934;2023-01-06T07:01:10;5.13;;;1.00;;
4232;SDS011;2130;48.472;11.934;2023-01-06T07:03:42;5.73;;;1.37;;
4232;SDS011;2130;48.472;11.934;2023-01-06T07:06:11;4.87;;;1.30;;
4232;SDS011;2130;48.472;11.934;2023-01-06T07:08:41;4.47;;;1.00;;
4232;SDS011;2130;48.472;11.934;2023-01-06T07:11:11;4.57;;;1.03;;
4232;SDS011;2130;48.472;11.934;2023-01-06T07:13:40;4.53;;;1.10;;
4232;SDS011;2130;48.472;11.934;2023-01-06T07:16:09;4.73;;;1.30;;
4232;SDS011;2130;48.472;11.934;2023-01-06T07:18:39;5.17;;;1.17;;
4232;SDS011;2130;48.472;11.934;2023-01-06T07:21:07;6.03;;;1.60;;
4232;SDS011;2130;48.472;11.934;2023-01-06T07:23:35;5.50;;;1.27;;
4232;SDS011;2130;48.472;11.934;2023-01-06T07:26:03;5.20;;;1.40;;
4232;SDS011;2130;48.472;11.934;2023-01-06T07:28:32;5.20;;;1.47;;
4232;SDS011;2130;48.472;11.934;2023-01-06T07:31:00;5.00;;;1.20;;
4232;SDS011;2130;48.472;11.934;2023-01-06T07:33:28;4.97;;;1.00;;
4232;SDS011;2130;48.472;11.934;2023-01-06T07:35:58;5.90;;;1.30;;
4232;SDS011;2130;48.472;11.934;2023-01-06T07:38:26;4.90;;;1.30;;
4232;SDS011;2130;48.472;11.934;2023-01-06T07:40:57;5.30;;;1.40;;
4232;SDS011;2130;48.472;11.934;2023-01-06T07:43:26;4.70;;;1.13;;
4232;SDS011;2130;48.472;11.934;2023-01-06T07:45:54;5.10;;;1.47;;
4232;SDS011;2130;48.472;11.934;2023-01-06T07:48:22;6.43;;;1.20;;
4232;SDS011;2130;48.472;11.934;2023-01-06T07:50:51;5.00;;;1.33;;
4232;SDS011;2130;48.472;11.934;2023-01-06T07:53:21;4.40;;;1.27;;
4232;SDS011;2130;48.472;11.934;2023-01-06T07:55:50;5.50;;;1.10;;
4232;SDS011;2130;48.472;11.934;2023-01-06T07:58:19;4.37;;;1.10;;
4232;SDS011;2130;48.472;11.934;2023-01-06T08:00:49;5.00;;;1.33;;
4232;SDS011;2130;48.472;11.934;2023-01-06T08:03:18;4.70;;;1.10;;
4232;SDS011;2130;48.472;11.934;2023-01-06T08:05:47;5.23;;;1.33;;
4232;SDS011;2130;48.472;11.934;2023-01-06T08:08:16;6.17;;;1.60;;
4232;SDS011;2130;48.472;11.934;2023-01-06T08:10:46;9.27;;;1.83;;
4232;SDS011;2130;48.472;11.934;2023-01-06T08:13:15;6.73;;;1.27;;
4232;SDS011;2130;48.472;11.934;2023-01-06T08:15:46;4.40;;;1.20;;
4232;SDS011;2130;48.472;11.934;2023-01-06T08:18:24;5.50;;;1.40;;
4232;SDS011;2130;48.472;11.934;2023-01-06T08:20:57;5.23;;;1.30;;
4232;SDS011;2130;48.472;11.934;2023-01-06T08:23:26;5.43;;;1.30;;
4232;SDS011;2130;48.472;11.934;2023-01-06T08:26:01;4.77;;;1.00;;
4232;SDS011;2130;48.472;11.934;2023-01-06T08:28:33;4.40;;;1.20;;
4232;SDS011;2130;48.472;11.934;2023-01-06T08:31:02;4.50;;;1.17;;
4232;SDS011;2130;48.472;11.934;2023-01-06T08:33:30;6.83;;;1.73;;
4232;SDS011;2130;48.472;11.934;2023-01-06T08:35:59;5.07;;;1.53;;
4232;SDS011;2130;48.472;11.934;2023-01-06T08:38:29;4.47;;;1.17;;
4232;SDS011;2130;48.472;11.934;2023-01-06T08:41:00;4.70;;;1.10;;
4232;SDS011;2130;48.472;11.934;2023-01-06T08:43:30;5.13;;;1.30;;
4232;SDS011;2130;48.472;11.934;2023-01-06T08:45:59;4.60;;;1.00;;
4232;SDS011;2130;48.472;11.934;2023-01-06T08:48:28;3.93;;;1.10;;
4232;SDS011;2130;48.472;11.934;2023-01-06T08:51:00;4.43;;;0.97;;
4232;SDS011;2130;48.472;11.934;2023-01-06T08:53:30;6.13;;;1.00;;
4232;SDS011;2130;48.472;11.934;2023-01-06T08:55:58;5.53;;;1.17;;
4232;SDS011;2130;48.472;11.934;2023-01-06T08:58:28;3.97;;;0.90;;
4232;SDS011;2130;48.472;11.934;2023-01-06T09:00:57;3.73;;;1.10;;
4232;SDS011;2130;48.472;11.934;2023-01-06T09:03:25;3.60;;;1.03;;
4232;SDS011;2130;48.472;11.934;2023-01-06T09:05:55;3.53;;;1.00;;
4232;SDS011;2130;48.472;11.934;2023-01-06T09:08:24;3.20;;;0.90;;
4232;SDS011;2130;48.472;11.934;2023-01-06T09:10:53;3.13;;;0.93;;
4232;SDS011;2130;48.472;11.934;2023-01-06T09:13:21;3.40;;;1.00;;
4232;SDS011;2130;48.472;11.934;2023-01-06T09:15:51;3.23;;;0.90;;
4232;SDS011;2130;48.472;11.934;2023-01-06T09:18:20;3.20;;;1.00;;
4232;SDS011;2130;48.472;11.934;2023-01-06T09:20:49;3.40;;;0.80;;
4232;SDS011;2130;48.472;11.934;2023-01-06T09:23:18;3.67;;;1.47;;
4232;SDS011;2130;48.472;11.934;2023-01-06T09:25:48;3.03;;;1.20;;
4232;SDS011;2130;48.472;11.934;2023-01-06T09:28:16;2.63;;;1.00;;
4232;SDS011;2130;48.472;11.934;2023-01-06T09:30:45;4.03;;;1.30;;
4232;SDS011;2130;48.472;11.934;2023-01-06T09:33:15;3.53;;;1.10;;
4232;SDS011;2130;48.472;11.934;2023-01-06T09:35:44;3.00;;;1.00;;
4232;SDS011;2130;48.472;11.934;2023-01-06T09:38:13;2.90;;;1.00;;
4232;SDS011;2130;48.472;11.934;2023-01-06T09:40:44;2.93;;;0.97;;
4232;SDS011;2130;48.472;11.934;2023-01-06T09:43:23;3.63;;;0.87;;
4232;SDS011;2130;48.472;11.934;2023-01-06T09:45:58;2.40;;;0.87;;
4232;SDS011;2130;48.472;11.934;2023-01-06T09:48:30;3.13;;;0.90;;
4232;SDS011;2130;48.472;11.934;2023-01-06T09:51:00;2.37;;;0.90;;
4232;SDS011;2130;48.472;11.934;2023-01-06T09:53:32;2.57;;;0.93;;
4232;SDS011;2130;48.472;11.934;2023-01-06T09:56:02;2.70;;;0.90;;
4232;SDS011;2130;48.472;11.934;2023-01-06T09:58:33;3.07;;;0.90;;
4232;SDS011;2130;48.472;11.934;2023-01-06T10:01:05;2.30;;;1.03;;
4232;SDS011;2130;48.472;11.934;2023-01-06T10:03:36;3.00;;;1.10;;
4232;SDS011;2130;48.472;11.934;2023-01-06T10:06:08;1.53;;;0.70;;
4232;SDS011;2130;48.472;11.934;2023-01-06T10:08:46;2.60;;;1.33;;
4232;SDS011;2130;48.472;11.934;2023-01-06T10:11:21;2.03;;;0.83;;
4232;SDS011;2130;48.472;11.934;2023-01-06T10:13:56;2.90;;;1.00;;
4232;SDS011;2130;48.472;11.934;2023-01-06T10:16:34;2.13;;;1.07;;
4232;SDS011;2130;48.472;11.934;2023-01-06T10:19:15;3.13;;;0.90;;
4232;SDS011;2130;48.472;11.934;2023-01-06T10:21:47;2.30;;;1.00;;
4232;SDS011;2130;48.472;11.934;2023-01-06T10:24:24;2.03;;;0.97;;
4232;SDS011;2130;48.472;11.934;2023-01-06T10:26:57;2.40;;;0.90;;
4232;SDS011;2130;48.472;11.934;2023-01-06T10:29:27;2.60;;;0.90;;
4232;SDS011;2130;48.472;11.934;2023-01-06T10:31:57;3.20;;;1.23;;
4232;SDS011;2130;48.472;11.934;2023-01-06T10:34:28;1.67;;;0.90;;
4232;SDS011;2130;48.472;11.934;2023-01-06T10:37:00;1.90;;;0.90;;
4232;SDS011;2130;48.472;11.934;2023-01-06T10:39:29;2.60;;;0.90;;
4232;SDS011;2130;48.472;11.934;2023-01-06T10:42:00;4.60;;;0.80;;
4232;SDS011;2130;48.472;11.934;2023-01-06T10:44:49;2.90;;;0.90;;
4232;SDS011;2130;48.472;11.934;2023-01-06T10:47:22;1.60;;;0.80;;
4232;SDS011;2130;48.472;11.934;2023-01-06T10:49:57;1.97;;;0.70;;
4232;SDS011;2130;48.472;11.934;2023-01-06T10:52:26;3.40;;;1.10;;
4232;SDS011;2130;48.472;11.934;2023-01-06T10:54:56;1.30;;;0.67;;
4232;SDS011;2130;48.472;11.934;2023-01-06T10:57:29;1.70;;;0.90;;
4232;SDS011;2130;48.472;11.934;2023-01-06T11:00:07;1.23;;;0.60;;
4232;SDS011;2130;48.472;11.934;2023-01-06T11:02:40;1.37;;;0.80;;
4232;SDS011;2130;48.472;11.934;2023-01-06T11:05:14;1.47;;;0.77;;
4232;SDS011;2130;48.472;11.934;2023-01-06T11:07:47;1.37;;;0.70;;
4232;SDS011;2130;48.472;11.934;2023-01-06T11:10:28;1.47;;;0.80;;
4232;SDS011;2130;48.472;11.934;2023-01-06T11:12:59;2.03;;;1.03;;
4232;SDS011;2130;48.472;11.934;2023-01-06T11:15:34;1.70;;;0.80;;
4232;SDS011;2130;48.472;11.934;2023-01-06T11:18:04;1.43;;;0.90;;
4232;SDS011;2130;48.472;11.934;2023-01-06T11:20:34;1.73;;;0.70;;
4232;SDS011;2130;48.472;11.934;2023-01-06T11:23:11;1.63;;;0.80;;
4232;SDS011;2130;48.472;11.934;2023-01-06T11:25:40;1.20;;;0.90;;
4232;SDS011;2130;48.472;11.934;2023-01-06T11:28:13;1.73;;;0.80;;
4232;SDS011;2130;48.472;11.934;2023-01-06T11:30:47;2.27;;;1.10;;
4232;SDS011;2130;48.472;11.934;2023-01-06T11:33:17;1.10;;;0.80;;
4232;SDS011;2130;48.472;11.934;2023-01-06T11:35:48;1.10;;;0.70;;
4232;SDS011;2130;48.472;11.934;2023-01-06T11:38:17;1.00;;;0.70;;
4232;SDS011;2130;48.472;11.934;2023-01-06T11:40:46;1.17;;;0.90;;
4232;SDS011;2130;48.472;11.934;2023-01-06T11:43:16;1.47;;;0.60;;
4232;SDS011;2130;48.472;11.934;2023-01-06T11:45:51;1.10;;;0.63;;
4232;SDS011;2130;48.472;11.934;2023-01-06T11:48:21;1.77;;;0.80;;
4232;SDS011;2130;48.472;11.934;2023-01-06T11:50:54;1.20;;;0.80;;
4232;SDS011;2130;48.472;11.934;2023-01-06T11:53:23;1.03;;;0.70;;
4232;SDS011;2130;48.472;11.934;2023-01-06T11:55:54;1.00;;;0.90;;
4232;SDS011;2130;48.472;11.934;2023-01-06T11:58:27;1.10;;;0.77;;
4232;SDS011;2130;48.472;11.934;2023-01-06T12:01:11;1.67;;;0.80;;
4232;SDS011;2130;48.472;11.934;2023-01-06T12:03:43;1.03;;;0.60;;
4232;SDS011;2130;48.472;11.934;2023-01-06T12:06:15;2.30;;;0.80;;
4232;SDS011;2130;48.472;11.934;2023-01-06T12:08:50;1.40;;;0.73;;
4232;SDS011;2130;48.472;11.934;2023-01-06T12:11:22;0.90;;;0.70;;
4232;SDS011;2130;48.472;11.934;2023-01-06T12:13:54;1.83;;;0.90;;
4232;SDS011;2130;48.472;11.934;2023-01-06T12:16:45;2.60;;;1.00;;
4232;SDS011;2130;48.472;11.934;2023-01-06T12:19:20;2.73;;;0.87;;
4232;SDS011;2130;48.472;11.934;2023-01-06T12:21:53;0.97;;;0.83;;
4232;SDS011;2130;48.472;11.934;2023-01-06T12:24:22;1.10;;;0.70;;
4232;SDS011;2130;48.472;11.934;2023-01-06T12:26:51;1.03;;;0.80;;
4232;SDS011;2130;48.472;11.934;2023-01-06T12:29:20;1.77;;;0.80;;
4232;SDS011;2130;48.472;11.934;2023-01-06T12:31:52;0.80;;;0.73;;
4232;SDS011;2130;48.472;11.934;2023-01-06T12:34:26;1.47;;;0.90;;
4232;SDS011;2130;48.472;11.934;2023-01-06T12:37:00;1.33;;;0.87;;
4232;SDS011;2130;48.472;11.934;2023-01-06T12:39:37;1.43;;;0.70;;
4232;SDS011;2130;48.472;11.934;2023-01-06T12:42:14;1.43;;;0.77;;
4232;SDS011;2130;48.472;11.934;2023-01-06T12:44:49;1.47;;;0.67;;
4232;SDS011;2130;48.472;11.934;2023-01-06T12:47:20;1.57;;;1.00;;
4232;SDS011;2130;48.472;11.934;2023-01-06T12:49:52;1.30;;;0.70;;
4232;SDS011;2130;48.472;11.934;2023-01-06T12:52:29;1.17;;;0.90;;
4232;SDS011;2130;48.472;11.934;2023-01-06T12:54:59;1.87;;;0.90;;
4232;SDS011;2130;48.472;11.934;2023-01-06T12:57:31;2.60;;;0.90;;
4232;SDS011;2130;48.472;11.934;2023-01-06T13:00:15;1.00;;;0.77;;
4232;SDS011;2130;48.472;11.934;2023-01-06T13:03:01;1.20;;;0.80;;
4232;SDS011;2130;48.472;11.934;2023-01-06T13:05:45;1.27;;;0.80;;
4232;SDS011;2130;48.472;11.934;2023-01-06T13:08:23;1.67;;;0.70;;
4232;SDS011;2130;48.472;11.934;2023-01-06T13:10:58;0.90;;;0.70;;
4232;SDS011;2130;48.472;11.934;2023-01-06T13:13:41;1.50;;;0.87;;
4232;SDS011;2130;48.472;11.934;2023-01-06T13:16:15;1.13;;;0.70;;
4232;SDS011;2130;48.472;11.934;2023-01-06T13:18:51;1.00;;;0.80;;
4232;SDS011;2130;48.472;11.934;2023-01-06T13:21:25;1.93;;;0.80;;
4232;SDS011;2130;48.472;11.934;2023-01-06T13:23:58;1.70;;;1.00;;
4232;SDS011;2130;48.472;11.934;2023-01-06T13:26:47;1.13;;;0.70;;
4232;SDS011;2130;48.472;11.934;2023-01-06T13:29:28;0.93;;;0.70;;
4232;SDS011;2130;48.472;11.934;2023-01-06T13:32:09;3.63;;;1.10;;
4232;SDS011;2130;48.472;11.934;2023-01-06T13:34:48;0.90;;;0.80;;
4232;SDS011;2130;48.472;11.934;2023-01-06T13:37:26;1.30;;;0.80;;
4232;SDS011;2130;48.472;11.934;2023-01-06T13:40:05;0.93;;;0.83;;
4232;SDS011;2130;48.472;11.934;2023-01-06T13:42:37;1.93;;;0.77;;
4232;SDS011;2130;48.472;11.934;2023-01-06T13:45:08;2.40;;;1.00;;
4232;SDS011;2130;48.472;11.934;2023-01-06T13:47:40;1.47;;;1.17;;
4232;SDS011;2130;48.472;11.934;2023-01-06T13:50:10;1.90;;;1.20;;
4232;SDS011;2130;48.472;11.934;2023-01-06T13:52:39;1.67;;;1.17;;
4232;SDS011;2130;48.472;11.934;2023-01-06T13:55:21;1.13;;;0.80;;
4232;SDS011;2130;48.472;11.934;2023-01-06T13:57:51;2.00;;;1.17;;
4232;SDS011;2130;48.472;11.934;2023-01-06T14:00:21;1.63;;;1.00;;
4232;SDS011;2130;48.472;11.934;2023-01-06T14:05:52;1.07;;;0.87;;
4232;SDS011;2130;48.472;11.934;2023-01-06T14:08:21;2.10;;;0.87;;
4232;SDS011;2130;48.472;11.934;2023-01-06T14:11:02;1.63;;;1.00;;
4232;SDS011;2130;48.472;11.934;2023-01-06T14:13:48;1.30;;;1.00;;
4232;SDS011;2130;48.472;11.934;2023-01-06T14:16:17;1.83;;;0.80;;
4232;SDS011;2130;48.472;11.934;2023-01-06T14:18:46;0.90;;;0.70;;
4232;SDS011;2130;48.472;11.934;2023-01-06T14:21:26;1.00;;;0.73;;
4232;SDS011;2130;48.472;11.934;2023-01-06T14:23:56;1.63;;;1.00;;
4232;SDS011;2130;48.472;11.934;2023-01-06T14:26:48;1.03;;;0.87;;
4232;SDS011;2130;48.472;11.934;2023-01-06T14:35:19;1.30;;;1.00;;
4232;SDS011;2130;48.472;11.934;2023-01-06T14:37:52;1.63;;;1.10;;
4232;SDS011;2130;48.472;11.934;2023-01-06T14:40:24;1.23;;;0.97;;
4232;SDS011;2130;48.472;11.934;2023-01-06T14:42:55;1.00;;;0.90;;
4232;SDS011;2130;48.472;11.934;2023-01-06T14:45:27;1.97;;;1.37;;
4232;SDS011;2130;48.472;11.934;2023-01-06T14:47:58;1.30;;;1.00;;
4232;SDS011;2130;48.472;11.934;2023-01-06T14:50:29;3.03;;;1.13;;
4232;SDS011;2130;48.472;11.934;2023-01-06T14:53:13;1.17;;;0.80;;
4232;SDS011;2130;48.472;11.934;2023-01-06T14:55:49;1.13;;;1.00;;
4232;SDS011;2130;48.472;11.934;2023-01-06T14:58:28;1.33;;;0.93;;
4232;SDS011;2130;48.472;11.934;2023-01-06T15:00:57;1.10;;;0.83;;
4232;SDS011;2130;48.472;11.934;2023-01-06T15:03:26;2.23;;;1.10;;
4232;SDS011;2130;48.472;11.934;2023-01-06T15:06:07;1.67;;;0.80;;
4232;SDS011;2130;48.472;11.934;2023-01-06T15:08:36;1.60;;;1.10;;
4232;SDS011;2130;48.472;11.934;2023-01-06T15:11:11;2.13;;;1.10;;
4232;SDS011;2130;48.472;11.934;2023-01-06T15:13:47;5.10;;;1.47;;
4232;SDS011;2130;48.472;11.934;2023-01-06T15:16:17;1.43;;;1.07;;
4232;SDS011;2130;48.472;11.934;2023-01-06T15:18:48;1.87;;;1.00;;
4232;SDS011;2130;48.472;11.934;2023-01-06T15:21:19;2.57;;;1.10;;
4232;SDS011;2130;48.472;11.934;2023-01-06T15:23:49;2.10;;;1.30;;
4232;SDS011;2130;48.472;11.934;2023-01-06T15:26:19;1.67;;;1.00;;
4232;SDS011;2130;48.472;11.934;2023-01-06T15:28:58;2.10;;;1.30;;
4232;SDS011;2130;48.472;11.934;2023-01-06T15:31:28;2.57;;;1.20;;
4232;SDS011;2130;48.472;11.934;2023-01-06T15:33:58;2.47;;;1.20;;
4232;SDS011;2130;48.472;11.934;2023-01-06T15:36:28;1.50;;;1.20;;
4232;SDS011;2130;48.472;11.934;2023-01-06T15:38:58;1.43;;;0.97;;
4232;SDS011;2130;48.472;11.934;2023-01-06T15:41:28;1.93;;;0.87;;
4232;SDS011;2130;48.472;11.934;2023-01-06T15:44:01;1.70;;;1.50;;
4232;SDS011;2130;48.472;11.934;2023-01-06T15:46:35;1.57;;;1.23;;
4232;SDS011;2130;48.472;11.934;2023-01-06T15:49:05;1.80;;;1.13;;
4232;SDS011;2130;48.472;11.934;2023-01-06T15:51:38;1.10;;;0.90;;
4232;SDS011;2130;48.472;11.934;2023-01-06T15:54:11;1.27;;;0.90;;
4232;SDS011;2130;48.472;11.934;2023-01-06T15:56:40;1.23;;;0.97;;